EBCI/CRL METAR and TAF weather

Enter ICAO airport designator
Station Type Date Time Source
EBCI METAR 2020/01/20 15:50 UTC NOAA

EBCI 201550Z 03005KT 7000 FEW010 04/03 Q1045 NOSIG


Station Type Date Time Source
EBCI Decoded METAR 2020/01/20 15:50 UTC NOAA

Charleroi / Gosselies, Belgium (EBCI) 50-28N 004-27E 192M
Jan 20, 2020 - 10:50 AM EST / 2020.01.20 1550 UTC
Wind: from the NNE (030 degrees) at 6 MPH (5 KT):0
Visibility: 4 mile(s):0
Sky conditions: mostly clear
Temperature: 39 F (4 C)
Dew Point: 37 F (3 C)
Relative Humidity: 93%
Pressure (altimeter): 30.86 in. Hg (1045 hPa)
ob: EBCI 201550Z 03005KT 7000 FEW010 04/03 Q1045 NOSIG
cycle: 16

Station Type Date Time Source
EBCI TAF 2020/01/20 12:27 UTC NOAA

TAF EBCI 201110Z 2012/2118 06005KT 0400 FG BKN001
BECMG 2012/2014 3000 BR BKN003 PROB30
TEMPO 2014/2016 6000 NSW SCT005
TEMPO 2018/2109 1200 BCFG PROB40
TEMPO 2018/2109 0300 FZFG BKN001
BECMG 2110/2112 8000 NSW FEW005

Example: see airport list